South Park Village, Washington
Current Conditions -  °F | °C
As of 7:35 AM on Monday 22 Dec 2014 (Local Time) from KPWT Reporting Station
Overcast Overcast  
Wind Chill: 39°   Ceiling: 600
Heat Index: 39°   Visibility: 10mi
Dew Point: 39°   Wind: 0mph
Humidity: 100%   Direction: NA
Pressure: 30.32"   Gusts: NA
Location:  47.5378°N, 122.589°W
Report Text: KPWT 221535Z AUTO 00000KT 10SM BKN006 OVC016 04/04 A3032 RMK AO1
Loading
Personal Weather Stations






























Interactive Weather Map New forecast layout! Learn more

10-Day Weather Forecast

Advertisements
Track Severe Weather on mobile